Date,TemperatureHighF,TemperatureAvgF,TemperatureLowF,DewpointHighF,DewpointAvgF,DewpointLowF,HumidityHigh,HumidityAvg,HumidityLow,PressureMaxIn,PressureMinIn,WindSpeedMaxMPH,WindSpeedAvgMPH,GustSpeedMaxMPH,PrecipitationSumIn
2013-3-1,42,29,18,17,10,3,59,45,30,31.08,30.56,64,2,64,7.21
2013-3-2,57,41,28,21,15,11,55,36,21,30.95,30.29,5,1,8,0.00
2013-3-3,60,45,33,24,17,9,55,35,20,30.52,29.71,8,3,14,0.00
2013-3-4,39,25,8,26,16,1,83,69,47,31.15,30.04,12,4,21,7.21
2013-3-5,42,22,8,22,12,0,80,68,44,31.19,30.49,12,6,17,0.00
2013-3-6,64,42,20,28,13,-1,77,33,17,30.90,29.92,8,2,14,0.00
2013-3-7,62,47,35,20,12,2,49,24,18,30.38,29.91,10,3,14,0.00
2013-3-8,50,38,30,32,24,14,87,57,37,30.42,29.95,5,2,8,0.00
2013-3-9,30,25,18,27,20,8,89,81,61,30.69,30.13,23,7,36,0.00
2013-3-10,34,24,14,12,8,3,74,52,31,30.89,30.46,11,4,61,7.21
2013-3-11,53,34,25,23,13,4,84,46,22,30.64,29.99,8,2,11,0.00
2013-3-12,29,25,22,25,20,18,86,83,80,30.92,30.64,11,4,17,0.00
2013-3-13,67,42,25,26,20,15,87,46,16,30.94,30.12,8,2,11,0.00
2013-3-14,71,50,37,22,18,10,50,30,13,30.73,30.01,9,2,14,0.00
2013-3-15,71,53,41,22,17,10,43,24,13,30.47,29.78,11,2,14,0.00
2013-3-16,49,40,34,32,26,16,88,58,30,30.38,30.00,11,4,18,0.03
2013-3-17,55,40,28,30,20,2,85,51,19,30.32,29.61,10,4,16,0.00
2013-3-18,50,31,17,13,6,-1,65,38,20,30.60,30.06,8,3,14,0.00
2013-3-19,51,34,23,12,5,-2,52,31,21,30.93,30.27,14,3,17,0.00
2013-3-20,49,32,16,21,10,3,64,44,22,31.05,30.13,14,5,19,0.00
2013-3-21,59,39,25,29,22,15,88,53,21,30.37,29.56,12,3,19,0.00
2013-3-22,42,29,20,23,20,16,86,71,37,30.48,29.87,17,5,24,0.00
2013-3-23,20,13,5,16,6,-2,85,75,68,30.90,30.48,17,5,26,0.00
2013-3-24,24,12,3,10,2,-4,74,63,36,31.00,30.50,11,2,13,0.02
2013-3-25,42,17,3,12,2,-4,75,54,25,31.14,30.36,10,2,14,0.00
2013-3-26,56,32,11,23,12,3,75,47,21,31.01,30.03,11,3,16,7.26
2013-3-27,58,38,24,27,21,14,75,52,24,30.60,30.04,9,3,18,0.00
2013-3-28,59,44,30,28,23,14,77,47,21,30.63,30.11,9,3,14,0.00
2013-3-29,60,47,34,32,25,-7,64,45,21,30.55,30.04,12,2,45,7.26
2013-3-30,62,45,35,34,24,16,88,49,18,30.50,29.83,14,3,21,0.01
2013-3-31,72,45,29,33,23,12,92,52,12,30.59,29.75,9,2,11,7.28